Celandine — ONDN — position and weather

sailwx.info

Track history (hours):
 
Tides and Currents Weather Stations Pressure Air Temp Water Temp Dewpoint Dewpoint Depression Visibility Wind Speed Wind Dir Waves Ship Positions

Celandine

Last reported at 2014-Aug-01 21:33 UTC. Time now 2014-Aug-01 22:34 UTC.
Position N 51°29' E 001°23'.

Length 162 m; draft 5.9 m.

Type: Ship (hazmat cat A). MMSI: 205476000.

Date/timePositionNaut miles runAvg speedWind from/ knotsBaromVisibWave heightAir tempDewpointWater temp
2014-Aug-01 21:33N 51°29' E 001°23'1615.9
2014-Aug-01 20:33N 51°29' E 000°57'1717.2
2014-Aug-01 19:33N 51°30' E 000°30'9 9.3
2014-Aug-01 18:33N 51°28' E 000°15'0 0.1
2014-Aug-01 17:32N 51°28' E 000°15'0 0.0
2014-Aug-01 16:32N 51°28' E 000°15'0 0.0
2014-Aug-01 15:32N 51°28' E 000°15'0 0.0
2014-Aug-01 14:32N 51°28' E 000°15'0 0.0
2014-Aug-01 13:32N 51°28' E 000°15'0 0.0
2014-Aug-01 12:32N 51°28' E 000°15'0 0.0
2014-Aug-01 11:32N 51°28' E 000°15'0 0.0
2014-Aug-01 10:32N 51°28' E 000°15'0 0.0
2014-Aug-01 09:32N 51°28' E 000°15'0 0.0
2014-Aug-01 08:32N 51°28' E 000°15'0 0.0
2014-Aug-01 07:32N 51°28' E 000°15'0 0.0
2014-Aug-01 06:32N 51°28' E 000°15'0 0.1
2014-Aug-01 05:33N 51°28' E 000°15'5 5.1
2014-Aug-01 04:34N 51°27' E 000°23'1414.2
2014-Aug-01 03:33N 51°29' E 000°46'1716.8
2014-Aug-01 02:33N 51°29' E 001°12'1716.6
2014-Aug-01 01:33N 51°32' E 001°39'1616.3
2014-Aug-01 00:33N 51°38' E 002°03'1413.9
2014-Jul-31 23:33N 51°35' E 002°25'1715.3
2014-Jul-31 22:28N 51°30' E 002°51'1415.1
2014-Jul-31 21:34N 51°23' E 003°10'4 2.8
2014-Jul-31 20:18N 51°21' E 003°13'0 0.0
2014-Jul-31 19:30N 51°21' E 003°13'0 0.0
2014-Jul-31 18:30N 51°21' E 003°13'0 0.0
2014-Jul-31 17:33N 51°21' E 003°13'0 0.0
2014-Jul-31 16:33N 51°21' E 003°13'0 0.0
2014-Jul-31 15:33N 51°21' E 003°13'0 0.0
2014-Jul-31 14:33N 51°21' E 003°13'0 0.0
2014-Jul-31 13:33N 51°21' E 003°13'1110.7
2014-Jul-31 12:34N 51°26' E 002°58'1615.7
2014-Jul-31 11:34N 51°35' E 002°37'1514.8
2014-Jul-31 10:34N 51°37' E 002°13'1413.9
2014-Jul-31 09:34N 51°34' E 001°51'1615.8
2014-Jul-31 08:34N 51°29' E 001°27'1716.7
2014-Jul-31 07:34N 51°29' E 001°00'1817.5
2014-Jul-31 06:34N 51°30' E 000°32'10 9.5
2014-Jul-31 05:33N 51°28' E 000°18'2 1.7
2014-Jul-31 04:31N 51°28' E 000°15'0 0.0
2014-Jul-31 03:31N 51°28' E 000°15'0 0.0
2014-Jul-31 02:31N 51°28' E 000°15'0 0.0
2014-Jul-31 01:31N 51°28' E 000°15'0 0.0
2014-Jul-31 00:31N 51°28' E 000°15'0 0.0
2014-Jul-30 23:34N 51°28' E 000°15'8 7.6
2014-Jul-30 22:34N 51°28' E 000°27'1514.8
2014-Jul-30 21:33N 51°29' E 000°51'1514.8
2014-Jul-30 20:34N 51°29' E 001°15'1514.8
2014-Jul-30 19:33N 51°31' E 001°38'1514.9
2014-Jul-30 18:33N 51°37' E 002°00'1515.1
2014-Jul-30 17:32N 51°35' E 002°25'1514.7
2014-Jul-30 16:33N 51°31' E 002°48'1615.8
2014-Jul-30 15:31N 51°23' E 003°10'3 3.0
2014-Jul-30 14:32N 51°21' E 003°13'0 0.0
2014-Jul-30 13:29N 51°21' E 003°13'0 0.0
2014-Jul-30 12:05N 51°21' E 003°13'0 0.0
2014-Jul-30 11:32N 51°21' E 003°13'0 0.0
2014-Jul-30 10:32N 51°21' E 003°13'0 0.0
2014-Jul-30 09:32N 51°21' E 003°13'0 0.1
2014-Jul-30 08:33N 51°21' E 003°13'1414.1
2014-Jul-30 07:33N 51°28' E 002°54'1514.7
2014-Jul-30 06:32N 51°33' E 002°31'1515.4
2014-Jul-30 05:34N 51°36' E 002°07'1716.8
2014-Jul-30 04:34N 51°32' E 001°41'1717.0
2014-Jul-30 03:34N 51°29' E 001°14'1616.4
2014-Jul-30 02:34N 51°29' E 000°48'1312.8
2014-Jul-30 01:34N 51°28' E 000°27'7 7.3
2014-Jul-30 00:34N 51°28' E 000°15'0 0.2
2014-Jul-29 23:34N 51°28' E 000°15'0 0.0
2014-Jul-29 22:34N 51°28' E 000°15'0 0.0
2014-Jul-29 21:34N 51°28' E 000°15'0 0.0
2014-Jul-29 20:34N 51°28' E 000°15'0 0.0
2014-Jul-29 19:34N 51°28' E 000°15'0 0.0
2014-Jul-29 18:34N 51°28' E 000°15'0 0.0
2014-Jul-29 17:34N 51°28' E 000°15'2 2.2
2014-Jul-29 16:34N 51°28' E 000°19'8 8.3
2014-Jul-29 15:33N 51°30' E 000°32'1514.9
2014-Jul-29 14:33N 51°29' E 000°55'1616.3
2014-Jul-29 13:34N 51°29' E 001°22'1515.1
2014-Jul-29 12:33N 51°33' E 001°45'1614.9
2014-Jul-29 11:28N 51°39' E 002°10'1414.8
2014-Jul-29 10:32N 51°35' E 002°31'1514.9
2014-Jul-29 09:33N 51°29' E 002°52'1515.2
2014-Jul-29 08:34N 51°21' E 003°12'1 0.1
2014-Jul-29 01:25N 51°21' E 003°13'3 1.0
2014-Jul-28 22:32N 51°23' E 003°10'1211.9
2014-Jul-28 21:33N 51°27' E 002°53'9 9.0
2014-Jul-28 20:33N 51°34' E 002°42'1413.9
2014-Jul-28 19:33N 51°31' E 002°20'1211.8
2014-Jul-28 18:33N 51°35' E 002°02'1615.7
2014-Jul-28 17:33N 51°31' E 001°38'1817.6
2014-Jul-28 16:33N 51°29' E 001°10'1817.6
2014-Jul-28 15:33N 51°30' E 000°41'1212.4
2014-Jul-28 14:33N 51°27' E 000°22'5 4.5
2014-Jul-28 13:33N 51°28' E 000°15'0 0.0
2014-Jul-28 12:32N 51°28' E 000°15'0 0.0
2014-Jul-28 11:32N 51°28' E 000°15'0 0.0
2014-Jul-28 10:32N 51°28' E 000°15'0 0.0
2014-Jul-28 09:32N 51°28' E 000°15'0 0.0
2014-Jul-28 08:29N 51°28' E 000°15'0 0.0
2014-Jul-28 07:32N 51°28' E 000°15'0 0.0
2014-Jul-28 06:32N 51°28' E 000°15'0 0.0
2014-Jul-28 05:32N 51°28' E 000°15'2 2.3
2014-Jul-28 04:34N 51°28' E 000°19'8 7.7
2014-Jul-28 03:33N 51°30' E 000°31'1413.6
2014-Jul-28 02:34N 51°30' E 000°53'1515.1
2014-Jul-28 01:34N 51°29' E 001°17'1615.8
2014-Jul-28 00:33N 51°32' E 001°42'9 8.6
2014-Jul-27 23:33N 51°36' E 001°54'1515.2
2014-Jul-27 22:34N 51°43' E 002°16'1717.2
2014-Jul-27 21:33N 51°54' E 002°37'1716.8
2014-Jul-27 20:33N 52°02' E 003°02'1717.4
2014-Jul-27 19:33N 52°03' E 003°30'1615.5
2014-Jul-27 18:33N 52°03' E 003°55'1211.9
2014-Jul-27 17:33N 51°56' E 004°11'3 2.9
2014-Jul-27 16:34N 51°54' E 004°14'0 0.0
2014-Jul-27 15:29N 51°54' E 004°14'0 0.0
2014-Jul-27 14:29N 51°54' E 004°14'0 0.0
2014-Jul-27 13:32N 51°54' E 004°14'0 0.0
2014-Jul-27 12:32N 51°54' E 004°14'0 0.0
2014-Jul-27 11:32N 51°54' E 004°14'0 0.0
2014-Jul-27 10:32N 51°54' E 004°14'0 0.0
2014-Jul-27 09:32N 51°54' E 004°14'2 2.1
2014-Jul-27 08:33N 51°55' E 004°12'1010.5
2014-Jul-27 07:34N 52°00' E 003°57'1313.0
2014-Jul-27 06:33N 51°58' E 003°37'1414.5
2014-Jul-27 05:33N 51°53' E 003°14'1414.3
2014-Jul-27 04:33N 51°48' E 002°53'2 2.4
2014-Jul-27 03:33N 51°48' E 002°49'1312.7
2014-Jul-27 02:33N 51°40' E 002°32'1515.2
2014-Jul-27 01:33N 51°29' E 002°15'1515.4
2014-Jul-27 00:33N 51°15' E 002°06'1717.3
2014-Jul-26 23:33N 51°05' E 001°44'1717.5
2014-Jul-26 22:34N 50°51' E 001°28'1616.0
2014-Jul-26 21:33N 50°37' E 001°15'1616.1
2014-Jul-26 20:33N 50°28' E 000°54'1717.0
2014-Jul-26 19:33N 50°23' E 000°28'3417.0
2014-Jul-26 17:33N 50°16' W 000°24'2015.7
2014-Jul-26 16:18N 50°14' W 000°55'1114.5
2014-Jul-26 15:33N 50°11' W 001°11'1212.1
2014-Jul-26 14:33N 50°12' W 001°30'16414.9
2014-Jul-26 03:33N 49°55' W 005°43'1212.4
2014-Jul-26 02:33N 50°02' W 005°59'1413.6
2014-Jul-26 01:33N 50°15' W 005°59'1414.3
2014-Jul-26 00:33N 50°30' W 005°60'1414.5
2014-Jul-25 23:33N 50°44' W 005°58'1615.5
2014-Jul-25 22:33N 50°59' W 005°60'1615.3
2014-Jul-25 21:32N 51°15' W 005°60'1414.8
2014-Jul-25 20:33N 51°30' W 005°59'1514.1
2014-Jul-25 19:27N 51°45' W 005°57'9613.9
2014-Jul-25 12:33N 53°21' W 006°12'0 0.1
2014-Jul-25 09:31N 53°21' W 006°13'0 0.0
2014-Jul-25 06:25N 53°21' W 006°13'0 0.0
2014-Jul-25 05:25N 53°21' W 006°13'0 0.0
2014-Jul-25 04:31N 53°21' W 006°13'0 0.0
2014-Jul-25 03:31N 53°21' W 006°13'48 9.0
2014-Jul-24 22:10N 52°35' W 005°49'813.7
2014-Jul-24 21:34N 52°26' W 005°50'1514.5
2014-Jul-24 20:33N 52°12' W 005°49'1615.3
2014-Jul-24 19:31N 51°56' W 005°47'1515.1
2014-Jul-24 18:31N 51°41' W 005°52'1515.7
2014-Jul-24 17:32N 51°26' W 005°52'1616.0
2014-Jul-24 16:33N 51°10' W 005°52'1616.3
2014-Jul-24 15:33N 50°54' W 005°52'16512.5
2014-Jul-24 02:19N 50°22' W 001°37'1518.6
2014-Jul-24 01:29N 50°24' W 001°13'2219.3
2014-Jul-24 00:22N 50°27' W 000°40'1618.9
2014-Jul-23 23:33N 50°30' W 000°15'1818.2
2014-Jul-23 22:33N 50°34' E 000°12'1717.1
2014-Jul-23 21:33N 50°40' E 000°37'1616.4
2014-Jul-23 20:33N 50°49' E 000°59'1616.4
2014-Jul-23 19:34N 50°60' E 001°19'1817.9
2014-Jul-23 18:34N 51°11' E 001°41'1918.9
2014-Jul-23 17:34N 51°28' E 001°56'1918.8
2014-Jul-23 16:34N 51°41' E 002°16'1817.9
2014-Jul-23 15:33N 51°54' E 002°37'1716.7
2014-Jul-23 14:33N 52°02' E 003°00'1716.9
2014-Jul-23 13:34N 52°03' E 003°28'1616.1
2014-Jul-23 12:33N 52°02' E 003°54'1212.1
2014-Jul-23 11:33N 51°56' E 004°11'3 2.7
2014-Jul-23 10:33N 51°54' E 004°14'0 0.0
2014-Jul-23 09:33N 51°54' E 004°14'0 0.0
2014-Jul-23 08:33N 51°54' E 004°14'0 0.0
2014-Jul-23 07:33N 51°54' E 004°14'0 0.0
2014-Jul-23 06:33N 51°54' E 004°14'0 0.0
2014-Jul-23 05:33N 51°54' E 004°14'0 0.0
2014-Jul-23 04:33N 51°54' E 004°14'0 0.0
2014-Jul-23 03:33N 51°54' E 004°14'0 0.0
2014-Jul-23 02:33N 51°54' E 004°14'6 5.9
2014-Jul-23 01:33N 51°58' E 004°07'1212.1
2014-Jul-23 00:33N 52°03' E 003°49'1312.8
2014-Jul-22 23:33N 52°08' E 003°29'1616.1
2014-Jul-22 22:33N 52°17' E 003°08'  
Track history (hours):
 
Tides and Currents Weather Stations Pressure Air Temp Water Temp Dewpoint Dewpoint Depression Visibility Wind Speed Wind Dir Waves Ship Positions

Celandine

Last reported at 2014-Aug-01 21:33 UTC. Time now 2014-Aug-01 22:34 UTC.
Position N 51°29' E 001°23'.

Length 162 m; draft 5.9 m.

Type: Ship (hazmat cat A). MMSI: 205476000.

Date/timePositionNaut miles runAvg speedWind from/ knotsBaromVisibWave heightAir tempDewpointWater temp
2014-Aug-01 21:33N 51°29' E 001°23'1615.9
2014-Aug-01 20:33N 51°29' E 000°57'1717.2
2014-Aug-01 19:33N 51°30' E 000°30'9 9.3
2014-Aug-01 18:33N 51°28' E 000°15'0 0.1
2014-Aug-01 17:32N 51°28' E 000°15'0 0.0
2014-Aug-01 16:32N 51°28' E 000°15'0 0.0
2014-Aug-01 15:32N 51°28' E 000°15'0 0.0
2014-Aug-01 14:32N 51°28' E 000°15'0 0.0
2014-Aug-01 13:32N 51°28' E 000°15'0 0.0
2014-Aug-01 12:32N 51°28' E 000°15'0 0.0
2014-Aug-01 11:32N 51°28' E 000°15'0 0.0
2014-Aug-01 10:32N 51°28' E 000°15'0 0.0
2014-Aug-01 09:32N 51°28' E 000°15'0 0.0
2014-Aug-01 08:32N 51°28' E 000°15'0 0.0
2014-Aug-01 07:32N 51°28' E 000°15'0 0.0
2014-Aug-01 06:32N 51°28' E 000°15'0 0.1
2014-Aug-01 05:33N 51°28' E 000°15'5 5.1
2014-Aug-01 04:34N 51°27' E 000°23'1414.2
2014-Aug-01 03:33N 51°29' E 000°46'1716.8
2014-Aug-01 02:33N 51°29' E 001°12'1716.6
2014-Aug-01 01:33N 51°32' E 001°39'1616.3
2014-Aug-01 00:33N 51°38' E 002°03'1413.9
2014-Jul-31 23:33N 51°35' E 002°25'1715.3
2014-Jul-31 22:28N 51°30' E 002°51'1415.1
2014-Jul-31 21:34N 51°23' E 003°10'4 2.8
2014-Jul-31 20:18N 51°21' E 003°13'0 0.0
2014-Jul-31 19:30N 51°21' E 003°13'0 0.0
2014-Jul-31 18:30N 51°21' E 003°13'0 0.0
2014-Jul-31 17:33N 51°21' E 003°13'0 0.0
2014-Jul-31 16:33N 51°21' E 003°13'0 0.0
2014-Jul-31 15:33N 51°21' E 003°13'0 0.0
2014-Jul-31 14:33N 51°21' E 003°13'0 0.0
2014-Jul-31 13:33N 51°21' E 003°13'1110.7
2014-Jul-31 12:34N 51°26' E 002°58'1615.7
2014-Jul-31 11:34N 51°35' E 002°37'1514.8
2014-Jul-31 10:34N 51°37' E 002°13'1413.9
2014-Jul-31 09:34N 51°34' E 001°51'1615.8
2014-Jul-31 08:34N 51°29' E 001°27'1716.7
2014-Jul-31 07:34N 51°29' E 001°00'1817.5
2014-Jul-31 06:34N 51°30' E 000°32'10 9.5
2014-Jul-31 05:33N 51°28' E 000°18'2 1.7
2014-Jul-31 04:31N 51°28' E 000°15'0 0.0
2014-Jul-31 03:31N 51°28' E 000°15'0 0.0
2014-Jul-31 02:31N 51°28' E 000°15'0 0.0
2014-Jul-31 01:31N 51°28' E 000°15'0 0.0
2014-Jul-31 00:31N 51°28' E 000°15'0 0.0
2014-Jul-30 23:34N 51°28' E 000°15'8 7.6
2014-Jul-30 22:34N 51°28' E 000°27'1514.8
2014-Jul-30 21:33N 51°29' E 000°51'1514.8
2014-Jul-30 20:34N 51°29' E 001°15'1514.8
2014-Jul-30 19:33N 51°31' E 001°38'1514.9
2014-Jul-30 18:33N 51°37' E 002°00'1515.1
2014-Jul-30 17:32N 51°35' E 002°25'1514.7
2014-Jul-30 16:33N 51°31' E 002°48'1615.8
2014-Jul-30 15:31N 51°23' E 003°10'3 3.0
2014-Jul-30 14:32N 51°21' E 003°13'0 0.0
2014-Jul-30 13:29N 51°21' E 003°13'0 0.0
2014-Jul-30 12:05N 51°21' E 003°13'0 0.0
2014-Jul-30 11:32N 51°21' E 003°13'0 0.0
2014-Jul-30 10:32N 51°21' E 003°13'0 0.0
2014-Jul-30 09:32N 51°21' E 003°13'0 0.1
2014-Jul-30 08:33N 51°21' E 003°13'1414.1
2014-Jul-30 07:33N 51°28' E 002°54'1514.7
2014-Jul-30 06:32N 51°33' E 002°31'1515.4
2014-Jul-30 05:34N 51°36' E 002°07'1716.8
2014-Jul-30 04:34N 51°32' E 001°41'1717.0
2014-Jul-30 03:34N 51°29' E 001°14'1616.4
2014-Jul-30 02:34N 51°29' E 000°48'1312.8
2014-Jul-30 01:34N 51°28' E 000°27'7 7.3
2014-Jul-30 00:34N 51°28' E 000°15'0 0.2
2014-Jul-29 23:34N 51°28' E 000°15'0 0.0
2014-Jul-29 22:34N 51°28' E 000°15'0 0.0
2014-Jul-29 21:34N 51°28' E 000°15'0 0.0
2014-Jul-29 20:34N 51°28' E 000°15'0 0.0
2014-Jul-29 19:34N 51°28' E 000°15'0 0.0
2014-Jul-29 18:34N 51°28' E 000°15'0 0.0
2014-Jul-29 17:34N 51°28' E 000°15'2 2.2
2014-Jul-29 16:34N 51°28' E 000°19'8 8.3
2014-Jul-29 15:33N 51°30' E 000°32'1514.9
2014-Jul-29 14:33N 51°29' E 000°55'1616.3
2014-Jul-29 13:34N 51°29' E 001°22'1515.1
2014-Jul-29 12:33N 51°33' E 001°45'1614.9
2014-Jul-29 11:28N 51°39' E 002°10'1414.8
2014-Jul-29 10:32N 51°35' E 002°31'1514.9
2014-Jul-29 09:33N 51°29' E 002°52'1515.2
2014-Jul-29 08:34N 51°21' E 003°12'1 0.1
2014-Jul-29 01:25N 51°21' E 003°13'3 1.0
2014-Jul-28 22:32N 51°23' E 003°10'1211.9
2014-Jul-28 21:33N 51°27' E 002°53'9 9.0
2014-Jul-28 20:33N 51°34' E 002°42'1413.9
2014-Jul-28 19:33N 51°31' E 002°20'1211.8
2014-Jul-28 18:33N 51°35' E 002°02'1615.7
2014-Jul-28 17:33N 51°31' E 001°38'1817.6
2014-Jul-28 16:33N 51°29' E 001°10'1817.6
2014-Jul-28 15:33N 51°30' E 000°41'1212.4
2014-Jul-28 14:33N 51°27' E 000°22'5 4.5
2014-Jul-28 13:33N 51°28' E 000°15'0 0.0
2014-Jul-28 12:32N 51°28' E 000°15'0 0.0
2014-Jul-28 11:32N 51°28' E 000°15'0 0.0
2014-Jul-28 10:32N 51°28' E 000°15'0 0.0
2014-Jul-28 09:32N 51°28' E 000°15'0 0.0
2014-Jul-28 08:29N 51°28' E 000°15'0 0.0
2014-Jul-28 07:32N 51°28' E 000°15'0 0.0
2014-Jul-28 06:32N 51°28' E 000°15'0 0.0
2014-Jul-28 05:32N 51°28' E 000°15'2 2.3
2014-Jul-28 04:34N 51°28' E 000°19'8 7.7
2014-Jul-28 03:33N 51°30' E 000°31'1413.6
2014-Jul-28 02:34N 51°30' E 000°53'1515.1
2014-Jul-28 01:34N 51°29' E 001°17'1615.8
2014-Jul-28 00:33N 51°32' E 001°42'9 8.6
2014-Jul-27 23:33N 51°36' E 001°54'1515.2
2014-Jul-27 22:34N 51°43' E 002°16'1717.2
2014-Jul-27 21:33N 51°54' E 002°37'1716.8
2014-Jul-27 20:33N 52°02' E 003°02'1717.4
2014-Jul-27 19:33N 52°03' E 003°30'1615.5
2014-Jul-27 18:33N 52°03' E 003°55'1211.9
2014-Jul-27 17:33N 51°56' E 004°11'3 2.9
2014-Jul-27 16:34N 51°54' E 004°14'0 0.0
2014-Jul-27 15:29N 51°54' E 004°14'0 0.0
2014-Jul-27 14:29N 51°54' E 004°14'0 0.0
2014-Jul-27 13:32N 51°54' E 004°14'0 0.0
2014-Jul-27 12:32N 51°54' E 004°14'0 0.0
2014-Jul-27 11:32N 51°54' E 004°14'0 0.0
2014-Jul-27 10:32N 51°54' E 004°14'0 0.0
2014-Jul-27 09:32N 51°54' E 004°14'2 2.1
2014-Jul-27 08:33N 51°55' E 004°12'1010.5
2014-Jul-27 07:34N 52°00' E 003°57'1313.0
2014-Jul-27 06:33N 51°58' E 003°37'1414.5
2014-Jul-27 05:33N 51°53' E 003°14'1414.3
2014-Jul-27 04:33N 51°48' E 002°53'2 2.4
2014-Jul-27 03:33N 51°48' E 002°49'1312.7
2014-Jul-27 02:33N 51°40' E 002°32'1515.2
2014-Jul-27 01:33N 51°29' E 002°15'1515.4
2014-Jul-27 00:33N 51°15' E 002°06'1717.3
2014-Jul-26 23:33N 51°05' E 001°44'1717.5
2014-Jul-26 22:34N 50°51' E 001°28'1616.0
2014-Jul-26 21:33N 50°37' E 001°15'1616.1
2014-Jul-26 20:33N 50°28' E 000°54'1717.0
2014-Jul-26 19:33N 50°23' E 000°28'3417.0
2014-Jul-26 17:33N 50°16' W 000°24'2015.7
2014-Jul-26 16:18N 50°14' W 000°55'1114.5
2014-Jul-26 15:33N 50°11' W 001°11'1212.1
2014-Jul-26 14:33N 50°12' W 001°30'16414.9
2014-Jul-26 03:33N 49°55' W 005°43'1212.4
2014-Jul-26 02:33N 50°02' W 005°59'1413.6
2014-Jul-26 01:33N 50°15' W 005°59'1414.3
2014-Jul-26 00:33N 50°30' W 005°60'1414.5
2014-Jul-25 23:33N 50°44' W 005°58'1615.5
2014-Jul-25 22:33N 50°59' W 005°60'1615.3
2014-Jul-25 21:32N 51°15' W 005°60'1414.8
2014-Jul-25 20:33N 51°30' W 005°59'1514.1
2014-Jul-25 19:27N 51°45' W 005°57'9613.9
2014-Jul-25 12:33N 53°21' W 006°12'0 0.1
2014-Jul-25 09:31N 53°21' W 006°13'0 0.0
2014-Jul-25 06:25N 53°21' W 006°13'0 0.0
2014-Jul-25 05:25N 53°21' W 006°13'0 0.0
2014-Jul-25 04:31N 53°21' W 006°13'0 0.0
2014-Jul-25 03:31N 53°21' W 006°13'48 9.0
2014-Jul-24 22:10N 52°35' W 005°49'813.7
2014-Jul-24 21:34N 52°26' W 005°50'1514.5
2014-Jul-24 20:33N 52°12' W 005°49'1615.3
2014-Jul-24 19:31N 51°56' W 005°47'1515.1
2014-Jul-24 18:31N 51°41' W 005°52'1515.7
2014-Jul-24 17:32N 51°26' W 005°52'1616.0
2014-Jul-24 16:33N 51°10' W 005°52'1616.3
2014-Jul-24 15:33N 50°54' W 005°52'16512.5
2014-Jul-24 02:19N 50°22' W 001°37'1518.6
2014-Jul-24 01:29N 50°24' W 001°13'2219.3
2014-Jul-24 00:22N 50°27' W 000°40'1618.9
2014-Jul-23 23:33N 50°30' W 000°15'1818.2
2014-Jul-23 22:33N 50°34' E 000°12'1717.1
2014-Jul-23 21:33N 50°40' E 000°37'1616.4
2014-Jul-23 20:33N 50°49' E 000°59'1616.4
2014-Jul-23 19:34N 50°60' E 001°19'1817.9
2014-Jul-23 18:34N 51°11' E 001°41'1918.9
2014-Jul-23 17:34N 51°28' E 001°56'1918.8
2014-Jul-23 16:34N 51°41' E 002°16'1817.9
2014-Jul-23 15:33N 51°54' E 002°37'1716.7
2014-Jul-23 14:33N 52°02' E 003°00'1716.9
2014-Jul-23 13:34N 52°03' E 003°28'1616.1
2014-Jul-23 12:33N 52°02' E 003°54'1212.1
2014-Jul-23 11:33N 51°56' E 004°11'3 2.7
2014-Jul-23 10:33N 51°54' E 004°14'0 0.0
2014-Jul-23 09:33N 51°54' E 004°14'0 0.0
2014-Jul-23 08:33N 51°54' E 004°14'0 0.0
2014-Jul-23 07:33N 51°54' E 004°14'0 0.0
2014-Jul-23 06:33N 51°54' E 004°14'0 0.0
2014-Jul-23 05:33N 51°54' E 004°14'0 0.0
2014-Jul-23 04:33N 51°54' E 004°14'0 0.0
2014-Jul-23 03:33N 51°54' E 004°14'0 0.0
2014-Jul-23 02:33N 51°54' E 004°14'6 5.9
2014-Jul-23 01:33N 51°58' E 004°07'1212.1
2014-Jul-23 00:33N 52°03' E 003°49'1312.8
2014-Jul-22 23:33N 52°08' E 003°29'1616.1
2014-Jul-22 22:33N 52°17' E 003°08'  

Dump ship's entire track history